Time;durP1;ratioP1;P1;durP2;ratioP2;P2;SDS_P1;SDS_P2;PMS_P1;PMS_P2;Temp;Humidity;BMP_temperature;BMP_pressure;BME280_temperature;BME280_humidity;BME280_pressure;Samples;Min_cycle;Max_cycle;Signal;HPM_P1;HPM_P2
2021/06/15 00:01:47;;;;;;;9.80;2.90;;;;;;;21.95;41.70;99429.34;5051953;28;20130;-77
2021/06/15 00:04:13;;;;;;;6.22;2.75;;;;;;;21.95;41.23;99432.91;5035605;28;20106;-77
2021/06/15 00:06:39;;;;;;;8.07;2.47;;;;;;;21.98;41.44;99429.81;5052542;28;20099;-77
2021/06/15 00:09:05;;;;;;;12.05;2.33;;;;;;;22.03;41.09;99430.06;5034967;28;20037;-76
2021/06/15 00:11:31;;;;;;;11.18;4.15;;;;;;;22.03;40.39;99432.78;5052120;28;20057;-76
2021/06/15 00:13:57;;;;;;;20.65;3.53;;;;;;;22.06;40.83;99434.28;5068455;28;20049;-76
2021/06/15 00:16:23;;;;;;;4.35;2.55;;;;;;;22.09;39.94;99438.50;5019040;28;20395;-76
2021/06/15 00:18:49;;;;;;;5.93;2.20;;;;;;;22.03;39.89;99434.66;5018407;28;20041;-75
2021/06/15 00:21:15;;;;;;;6.45;2.28;;;;;;;22.02;39.79;99439.25;5035633;28;20047;-75
2021/06/15 00:23:40;;;;;;;13.85;2.92;;;;;;;22.02;39.72;99443.88;5052841;28;20098;-76
2021/06/15 00:26:07;;;;;;;11.02;2.55;;;;;;;22.06;39.71;99448.72;5035113;28;20139;-76
2021/06/15 00:28:32;;;;;;;7.53;2.33;;;;;;;22.14;39.60;99442.34;5018647;28;20491;-76
2021/06/15 00:31:00;;;;;;;6.15;2.20;;;;;;;22.21;39.02;99442.41;5048430;28;20126;-76
2021/06/15 00:33:26;;;;;;;7.53;2.28;;;;;;;22.27;38.82;99441.63;5022151;28;20411;-76
2021/06/15 00:35:52;;;;;;;12.80;2.42;;;;;;;22.29;38.96;99442.25;5038391;28;20045;-76
2021/06/15 00:38:18;;;;;;;8.52;2.50;;;;;;;22.25;38.74;99438.25;5021727;28;20141;-75
2021/06/15 00:40:44;;;;;;;7.90;2.05;;;;;;;22.19;38.80;99439.03;5054848;28;20068;-76
2021/06/15 00:43:10;;;;;;;11.30;2.88;;;;;;;22.14;39.03;99436.06;5038035;28;20052;-74
2021/06/15 00:45:36;;;;;;;3.90;2.08;;;;;;;22.19;38.80;99436.28;5038297;28;20093;-75
2021/06/15 00:48:04;;;;;;;6.57;2.05;;;;;;;22.11;38.92;99433.69;5038410;28;20045;-76
2021/06/15 00:50:30;;;;;;;8.38;2.22;;;;;;;22.22;39.00;99444.06;5072659;28;20056;-75
2021/06/15 00:52:56;;;;;;;11.35;2.67;;;;;;;22.24;38.64;99439.28;5038681;28;20515;-75
2021/06/15 00:55:24;;;;;;;3.80;1.90;;;;;;;22.21;38.58;99450.56;5038373;28;20604;-78
2021/06/15 00:57:50;;;;;;;2.65;2.20;;;;;;;22.14;38.89;99452.38;5055526;28;20052;-75
2021/06/15 01:00:16;;;;;;;5.80;2.17;;;;;;;22.18;38.42;99454.50;5088421;28;20045;-77
2021/06/15 01:02:43;;;;;;;7.78;2.08;;;;;;;22.08;38.19;99448.53;5054955;28;20036;-76
2021/06/15 01:05:10;;;;;;;5.47;2.17;;;;;;;22.00;38.95;99449.53;5054779;28;20048;-76
2021/06/15 01:08:03;;;;;;;12.77;2.58;;;;;;;22.01;38.89;99453.06;5038203;28;20524;-76
2021/06/15 01:11:18;;;;;;;4.85;2.55;;;;;;;22.17;38.78;99460.16;5055158;28;20044;-77
2021/06/15 01:14:12;;;;;;;9.13;2.67;;;;;;;22.03;38.61;99454.53;5008577;28;20399;-76
2021/06/15 01:16:50;;;;;;;9.30;2.25;;;;;;;22.10;38.93;99461.94;5017757;28;20485;-75
2021/06/15 01:19:25;;;;;;;10.18;2.42;;;;;;;22.10;38.60;99467.41;5042250;28;20036;-76
2021/06/15 01:22:10;;;;;;;5.90;2.20;;;;;;;22.16;38.47;99477.56;5075009;28;20075;-75
2021/06/15 01:24:50;;;;;;;7.03;2.25;;;;;;;22.11;38.41;99464.47;5044862;28;20056;-76
2021/06/15 01:27:38;;;;;;;11.55;2.50;;;;;;;22.18;38.53;99475.47;5058546;28;20139;-76
2021/06/15 01:30:07;;;;;;;10.80;2.45;;;;;;;22.24;38.58;99474.69;5021608;28;20530;-76
2021/06/15 01:32:36;;;;;;;3.95;2.10;;;;;;;22.29;38.32;99464.88;5038766;28;20098;-77
2021/06/15 01:35:07;;;;;;;9.43;2.50;;;;;;;22.31;38.42;99472.88;5038241;28;20049;-76
2021/06/15 01:37:44;;;;;;;10.93;2.70;;;;;;;22.25;38.28;99465.47;5022086;28;20127;-76
2021/06/15 01:40:15;;;;;;;23.55;3.33;;;;;;;22.04;38.64;99453.53;5055020;28;20055;-76
2021/06/15 01:42:54;;;;;;;4.90;2.28;;;;;;;22.19;38.49;99468.97;5023364;28;20041;-76
2021/06/15 01:45:29;;;;;;;10.27;2.65;;;;;;;22.00;38.30;99451.38;5038145;28;20045;-76
2021/06/15 01:48:11;;;;;;;6.05;2.40;;;;;;;22.00;38.42;99463.13;5038947;28;20037;-77
2021/06/15 01:50:41;;;;;;;5.85;2.40;;;;;;;21.87;38.59;99457.53;5054314;28;20079;-76
2021/06/15 01:53:10;;;;;;;4.50;2.07;;;;;;;21.91;38.53;99472.44;5038160;28;20048;-76
2021/06/15 01:55:41;;;;;;;4.88;2.28;;;;;;;21.83;38.58;99459.78;5006135;28;20044;-76
2021/06/15 01:58:07;;;;;;;6.57;2.30;;;;;;;21.82;38.36;99462.72;5038000;28;20145;-76
2021/06/15 02:00:34;;;;;;;6.80;1.90;;;;;;;21.80;38.33;99462.06;5037743;28;20041;-77
2021/06/15 02:03:03;;;;;;;5.95;2.13;;;;;;;21.81;38.42;99464.59;5038084;28;20045;-77
2021/06/15 02:05:41;;;;;;;8.70;2.35;;;;;;;21.72;38.79;99475.78;5070555;28;20045;-76
2021/06/15 02:08:08;;;;;;;4.70;3.40;;;;;;;21.66;38.84;99458.31;5055326;28;20103;-77
2021/06/15 02:10:39;;;;;;;5.82;2.42;;;;;;;21.71;39.06;99479.53;5006239;28;20068;-76
2021/06/15 02:13:16;;;;;;;6.13;2.45;;;;;;;21.69;39.48;99459.84;5039080;28;20036;-77
2021/06/15 02:16:07;;;;;;;11.85;2.80;;;;;;;21.74;40.19;99484.56;5041063;28;20088;-77
2021/06/15 02:18:53;;;;;;;11.00;2.97;;;;;;;21.68;39.93;99474.47;5056370;28;20037;-76
2021/06/15 02:21:32;;;;;;;7.57;3.22;;;;;;;21.72;40.64;99471.19;5038961;28;20052;-76
2021/06/15 02:24:00;;;;;;;6.22;3.42;;;;;;;21.76;40.84;99471.63;5037399;28;20403;-76
2021/06/15 02:26:29;;;;;;;15.15;3.83;;;;;;;21.70;41.28;99480.56;5037499;28;20055;-77
2021/06/15 02:28:56;;;;;;;10.18;4.53;;;;;;;21.68;41.19;99474.47;5036755;28;20526;-78
2021/06/15 02:31:31;;;;;;;7.00;3.85;;;;;;;21.77;41.08;99481.47;5036964;28;20056;-76
2021/06/15 02:34:08;;;;;;;8.65;3.88;;;;;;;21.77;41.34;99473.31;5088789;28;20552;-77
2021/06/15 02:36:37;;;;;;;16.48;3.92;;;;;;;21.99;40.78;99483.19;5056996;28;20067;-77
2021/06/15 02:39:13;;;;;;;11.73;3.60;;;;;;;22.13;40.45;99483.34;5056794;28;20071;-76
2021/06/15 02:41:42;;;;;;;10.80;3.72;;;;;;;22.23;39.99;99489.34;5056967;28;20052;-76
2021/06/15 02:44:09;;;;;;;9.60;3.88;;;;;;;22.29;39.87;99489.41;5040564;28;20456;-77
2021/06/15 02:46:36;;;;;;;8.38;3.65;;;;;;;22.37;39.65;99491.13;5039884;28;20047;-76
2021/06/15 02:49:08;;;;;;;13.80;3.90;;;;;;;22.39;39.25;99483.63;5073112;28;20051;-77
2021/06/15 02:51:35;;;;;;;12.63;3.40;;;;;;;22.35;38.76;99497.84;5056702;28;20051;-75
2021/06/15 02:54:21;;;;;;;12.48;3.90;;;;;;;22.32;38.50;99488.16;5072764;28;20041;-77
2021/06/15 02:56:52;;;;;;;10.18;3.40;;;;;;;22.44;38.42;99497.50;5056885;28;20067;-77
2021/06/15 02:59:20;;;;;;;13.93;3.50;;;;;;;22.58;37.83;99498.47;5055846;28;20079;-77
2021/06/15 03:01:53;;;;;;;13.63;3.40;;;;;;;22.74;37.44;99497.34;5056084;28;20178;-76
2021/06/15 03:04:26;;;;;;;8.38;3.53;;;;;;;22.78;37.38;99498.63;5075892;28;20097;-77
2021/06/15 03:06:52;;;;;;;8.63;3.50;;;;;;;22.73;37.31;99504.66;5079439;28;20062;-77
2021/06/15 03:09:20;;;;;;;8.32;3.70;;;;;;;22.74;37.04;99502.78;5063380;28;20043;-76
2021/06/15 03:11:52;;;;;;;11.63;3.92;;;;;;;22.82;37.03;99507.25;5062603;28;20032;-77
2021/06/15 03:14:21;;;;;;;15.50;4.30;;;;;;;22.89;37.06;99506.25;5079506;28;20047;-76
2021/06/15 03:16:47;;;;;;;16.02;4.60;;;;;;;23.00;36.94;99511.19;5079299;28;20044;-77
2021/06/15 03:19:21;;;;;;;11.05;3.72;;;;;;;23.06;36.76;99506.00;5079905;28;20066;-76
2021/06/15 03:21:50;;;;;;;7.88;3.58;;;;;;;23.16;36.57;99522.81;5096164;28;20070;-77
2021/06/15 03:24:20;;;;;;;9.45;3.70;;;;;;;23.24;36.30;99514.47;5063179;28;20060;-75
2021/06/15 03:27:07;;;;;;;9.02;3.40;;;;;;;23.31;36.59;99520.81;5079736;28;20047;-77
2021/06/15 03:29:40;;;;;;;12.20;3.80;;;;;;;23.34;36.44;99509.50;5081952;27;20446;-78
2021/06/15 03:32:17;;;;;;;12.50;3.40;;;;;;;23.48;36.22;99516.72;5116442;27;20507;-79
2021/06/15 03:34:45;;;;;;;10.15;2.97;;;;;;;23.56;36.12;99523.06;5048848;27;20066;-76
2021/06/15 03:37:13;;;;;;;7.05;2.85;;;;;;;23.57;36.26;99519.28;5082390;27;20411;-77
2021/06/15 03:39:39;;;;;;;8.88;2.95;;;;;;;23.65;36.65;99522.66;5099003;27;20039;-76
2021/06/15 03:42:06;;;;;;;10.80;2.60;;;;;;;23.73;36.52;99524.41;5082210;27;20049;-76
2021/06/15 03:44:32;;;;;;;7.63;2.75;;;;;;;23.82;36.69;99516.91;5082184;27;20065;-78
2021/06/15 03:46:58;;;;;;;14.38;2.85;;;;;;;23.89;36.37;99524.09;5065358;27;20512;-77
2021/06/15 03:49:24;;;;;;;38.13;3.60;;;;;;;23.90;36.24;99509.38;5082271;27;20126;-78
2021/06/15 03:51:54;;;;;;;3.03;2.03;;;;;;;23.96;36.20;99530.41;5099156;27;20134;-77
2021/06/15 03:54:21;;;;;;;8.73;2.05;;;;;;;24.04;36.35;99529.38;5099381;27;20038;-78
2021/06/15 03:56:48;;;;;;;1.80;1.63;;;;;;;24.15;35.85;99527.94;5081951;27;20092;-78
2021/06/15 03:59:26;;;;;;;13.45;2.08;;;;;;;24.28;35.91;99530.69;5099038;27;20038;-77
2021/06/15 04:01:54;;;;;;;9.30;2.43;;;;;;;24.41;35.63;99533.50;5065601;27;20405;-76
2021/06/15 04:04:20;;;;;;;6.72;2.00;;;;;;;24.52;34.98;99544.84;5098575;27;20046;-77
2021/06/15 04:06:51;;;;;;;5.70;1.65;;;;;;;24.67;34.97;99537.28;5082249;27;20043;-79
2021/06/15 04:09:27;;;;;;;3.75;1.60;;;;;;;24.85;34.53;99534.75;5116459;27;20058;-76
2021/06/15 04:11:55;;;;;;;7.22;1.85;;;;;;;24.95;34.30;99539.81;5115345;27;20047;-77
2021/06/15 04:14:21;;;;;;;5.32;2.00;;;;;;;25.14;34.44;99538.16;5098028;27;20050;-77
2021/06/15 04:16:48;;;;;;;3.33;1.77;;;;;;;25.17;34.53;99540.47;5098284;27;20059;-76
2021/06/15 04:19:16;;;;;;;8.02;2.33;;;;;;;25.22;34.06;99543.41;5114073;27;20093;-78
2021/06/15 04:21:44;;;;;;;9.35;2.00;;;;;;;25.25;34.16;99534.78;5047815;27;20039;-77
2021/06/15 04:24:12;;;;;;;5.28;1.80;;;;;;;25.31;34.40;99542.13;5097377;27;20042;-77
2021/06/15 04:26:38;;;;;;;12.63;1.77;;;;;;;25.35;34.25;99535.19;5097831;28;20043;-78
2021/06/15 04:29:10;;;;;;;9.18;2.13;;;;;;;25.44;34.62;99547.56;5080473;27;20115;-76
2021/06/15 04:31:37;;;;;;;11.45;2.33;;;;;;;25.48;34.10;99547.97;5047349;28;20061;-75
2021/06/15 04:34:04;;;;;;;4.93;2.17;;;;;;;25.63;33.91;99551.31;5065490;28;20550;-77
2021/06/15 04:36:33;;;;;;;10.93;2.22;;;;;;;25.63;33.66;99547.72;5115598;28;20063;-75
2021/06/15 04:39:01;;;;;;;3.17;1.98;;;;;;;25.71;33.41;99549.38;5062885;28;20046;-76
2021/06/15 04:41:38;;;;;;;7.72;1.50;;;;;;;25.71;33.57;99550.22;5092879;28;20051;-78
2021/06/15 04:44:06;;;;;;;3.15;1.70;;;;;;;25.71;32.97;99533.78;5060128;28;20044;-75
2021/06/15 04:46:50;;;;;;;5.70;1.92;;;;;;;25.72;32.08;99543.69;5045404;28;20042;-77
2021/06/15 04:49:28;;;;;;;7.45;1.92;;;;;;;25.84;32.42;99539.25;5046647;28;20506;-76
2021/06/15 04:51:55;;;;;;;8.43;2.17;;;;;;;25.98;32.04;99530.97;5046881;28;20036;-78
2021/06/15 04:54:22;;;;;;;13.27;2.15;;;;;;;26.22;32.06;99546.66;5079715;28;20044;-77
2021/06/15 04:56:48;;;;;;;6.13;2.03;;;;;;;26.29;31.79;99544.72;5046949;28;20051;-79
2021/06/15 04:59:14;;;;;;;5.60;1.67;;;;;;;26.22;32.14;99541.19;5090986;27;20088;-76
2021/06/15 05:01:42;;;;;;;8.93;2.10;;;;;;;26.29;32.19;99535.63;5050145;27;20066;-76
2021/06/15 05:04:08;;;;;;;7.45;2.20;;;;;;;26.44;31.63;99543.56;5059936;28;20040;-77
2021/06/15 05:06:34;;;;;;;4.18;1.90;;;;;;;26.52;31.46;99537.88;5061086;28;20036;-76
2021/06/15 05:09:03;;;;;;;9.52;2.20;;;;;;;26.38;31.87;99535.16;5045226;28;20081;-76
2021/06/15 05:11:37;;;;;;;5.93;3.17;;;;;;;26.47;31.71;99543.97;5061213;28;20044;-77
2021/06/15 05:14:07;;;;;;;7.40;2.03;;;;;;;26.59;32.32;99535.88;5078914;28;20048;-76
2021/06/15 05:16:35;;;;;;;7.43;2.22;;;;;;;26.74;31.98;99541.91;5062093;28;20119;-77
2021/06/15 05:19:01;;;;;;;9.82;2.38;;;;;;;26.77;32.52;99548.84;5094986;28;20494;-76
2021/06/15 05:21:51;;;;;;;24.20;2.97;;;;;;;26.80;33.18;99538.25;5061467;28;20044;-76
2021/06/15 05:24:46;;;;;;;9.55;4.00;;;;;;;27.05;33.33;99540.16;5061376;28;20052;-76
2021/06/15 05:27:15;;;;;;;8.13;2.63;;;;;;;27.18;33.87;99540.06;5061214;28;20177;-76
2021/06/15 05:29:41;;;;;;;10.40;2.42;;;;;;;27.34;33.01;99539.50;5043934;28;20161;-77
2021/06/15 05:32:08;;;;;;;13.02;2.95;;;;;;;27.58;32.89;99539.66;5042873;28;20131;-76
2021/06/15 05:34:35;;;;;;;15.70;2.92;;;;;;;27.54;32.57;99541.19;5076633;28;20046;-77
2021/06/15 05:37:02;;;;;;;14.05;3.65;;;;;;;27.67;32.88;99538.25;5060487;28;20043;-76
2021/06/15 05:39:29;;;;;;;9.60;2.97;;;;;;;27.91;33.13;99544.78;5043892;28;20054;-76
2021/06/15 05:41:55;;;;;;;7.45;2.75;;;;;;;27.96;32.76;99530.34;5060207;28;20043;-77
2021/06/15 05:44:20;;;;;;;9.60;3.00;;;;;;;28.15;33.26;99534.72;5060353;28;20052;-77
2021/06/15 05:46:47;;;;;;;8.75;3.05;;;;;;;28.23;33.41;99531.66;5061122;28;20620;-77
2021/06/15 05:49:12;;;;;;;7.43;3.35;;;;;;;28.47;33.39;99537.25;5078062;28;20173;-76
2021/06/15 05:51:39;;;;;;;13.77;3.03;;;;;;;28.62;33.09;99539.56;5095047;28;20406;-77
2021/06/15 05:54:05;;;;;;;10.05;3.58;;;;;;;28.75;33.73;99534.69;5060914;28;20339;-77
2021/06/15 05:56:32;;;;;;;6.88;2.80;;;;;;;28.99;33.53;99543.00;5059767;28;20044;-77
2021/06/15 05:58:58;;;;;;;9.75;3.00;;;;;;;29.11;33.03;99540.25;5094495;28;20196;-77
2021/06/15 06:01:25;;;;;;;22.92;4.95;;;;;;;29.09;32.96;99540.50;5061147;28;20072;-77
2021/06/15 06:04:04;;;;;;;10.98;3.35;;;;;;;29.17;33.17;99544.81;5094749;28;20051;-77
2021/06/15 06:09:14;;;;;;;15.10;3.47;;;;;;;29.10;33.66;99541.34;5077538;28;20070;-77
2021/06/15 06:11:43;;;;;;;9.43;3.47;;;;;;;29.21;33.75;99537.75;5077072;28;20040;-76
2021/06/15 06:14:10;;;;;;;11.48;4.40;;;;;;;29.42;33.30;99544.56;5076986;28;20040;-75
2021/06/15 06:16:36;;;;;;;8.70;3.88;;;;;;;29.56;33.19;99540.47;5077378;28;20048;-76
2021/06/15 06:19:03;;;;;;;32.45;5.78;;;;;;;29.68;32.72;99540.50;5027148;28;20414;-77
2021/06/15 06:21:31;;;;;;;10.20;4.22;;;;;;;29.60;32.44;99530.69;5060731;28;20044;-75
2021/06/15 06:23:57;;;;;;;;;;;;;;;29.61;32.58;99537.88;5095178;28;20460;-76
2021/06/15 06:26:24;;;;;;;14.63;4.55;;;;;;;29.70;32.56;99522.63;5043926;28;19916;-76
2021/06/15 06:28:49;;;;;;;17.77;5.65;;;;;;;29.86;32.46;99529.28;5060059;28;20048;-77
2021/06/15 06:31:15;;;;;;;8.93;4.30;;;;;;;30.00;31.88;99533.44;5073759;28;20447;-76
2021/06/15 06:33:41;;;;;;;13.82;4.07;;;;;;;29.90;31.33;99526.88;5057404;28;20051;-75
2021/06/15 06:36:07;;;;;;;14.55;3.92;;;;;;;29.97;31.71;99530.34;5073825;28;20471;-76
2021/06/15 06:38:33;;;;;;;17.70;4.18;;;;;;;30.15;31.30;99527.38;5074518;28;20487;-76
2021/06/15 06:40:59;;;;;;;8.50;3.83;;;;;;;30.07;31.20;99525.03;5056755;28;20072;-77
2021/06/15 06:43:25;;;;;;;12.35;4.10;;;;;;;30.23;30.97;99529.78;5056712;28;20045;-77
2021/06/15 06:45:52;;;;;;;21.73;4.53;;;;;;;30.37;31.11;99523.97;5073391;28;20522;-76
2021/06/15 06:48:19;;;;;;;7.25;3.50;;;;;;;30.39;30.80;99516.28;5040055;28;20076;-77
2021/06/15 06:50:45;;;;;;;13.15;4.20;;;;;;;30.62;30.72;99516.16;5023928;28;20055;-77
2021/06/15 06:53:11;;;;;;;13.02;3.80;;;;;;;30.73;30.01;99517.16;5074477;28;20119;-76
2021/06/15 06:55:37;;;;;;;13.10;3.80;;;;;;;30.83;30.27;99517.34;5073041;28;20047;-76
2021/06/15 06:58:04;;;;;;;6.47;3.53;;;;;;;30.85;30.25;99509.66;5056605;28;20047;-76
2021/06/15 07:00:30;;;;;;;8.57;3.00;;;;;;;30.93;30.73;99516.69;5039870;28;20040;-76
2021/06/15 07:02:56;;;;;;;12.27;3.50;;;;;;;31.13;30.59;99521.69;5072731;28;20563;-77
2021/06/15 07:05:22;;;;;;;21.88;3.65;;;;;;;31.34;30.56;99509.03;5089390;28;20076;-76
2021/06/15 07:07:50;;;;;;;9.02;3.03;;;;;;;31.50;31.12;99494.34;5073791;28;20048;-77
2021/06/15 07:10:19;;;;;;;6.38;2.47;;;;;;;31.57;30.63;99497.75;5072447;28;20086;-77
2021/06/15 07:12:45;;;;;;;10.85;3.55;;;;;;;31.70;30.88;99491.00;5056266;28;20052;-76
2021/06/15 07:15:11;;;;;;;9.88;3.75;;;;;;;31.75;30.87;99501.31;5056111;28;20098;-76
2021/06/15 07:17:37;;;;;;;10.10;3.40;;;;;;;32.00;30.58;99498.00;5073828;28;20127;-76
2021/06/15 07:20:04;;;;;;;15.25;3.22;;;;;;;32.02;30.85;99504.97;5039537;28;20047;-76
2021/06/15 07:22:30;;;;;;;6.55;2.63;;;;;;;32.13;30.60;99492.09;5056211;28;20048;-77
2021/06/15 07:24:56;;;;;;;15.18;2.95;;;;;;;32.19;30.21;99495.72;5072890;28;20040;-77
2021/06/15 07:27:22;;;;;;;8.90;2.72;;;;;;;32.22;30.16;99500.75;5072415;28;20461;-75
2021/06/15 07:29:48;;;;;;;11.23;2.38;;;;;;;32.34;30.05;99498.66;5076875;28;20083;-76
2021/06/15 07:32:14;;;;;;;9.02;2.42;;;;;;;32.45;30.18;99494.91;5075761;28;20165;-77
2021/06/15 07:34:40;;;;;;;10.45;2.70;;;;;;;32.70;29.93;99496.25;5076239;28;20048;-77
2021/06/15 07:37:06;;;;;;;10.65;2.80;;;;;;;32.82;29.12;99489.41;5042708;28;20452;-76
2021/06/15 07:39:33;;;;;;;7.30;2.22;;;;;;;32.79;29.32;99487.16;5058873;28;20032;-76
2021/06/15 07:41:59;;;;;;;9.98;2.13;;;;;;;32.72;29.58;99478.25;5076201;28;20104;-76
2021/06/15 07:44:25;;;;;;;6.93;2.22;;;;;;;32.78;29.52;99482.75;5059123;28;20044;-78
2021/06/15 07:46:53;;;;;;;5.20;2.00;;;;;;;32.71;29.88;99486.84;5075398;28;20051;-77
2021/06/15 07:49:19;;;;;;;9.38;2.42;;;;;;;33.00;29.75;99477.13;5075771;28;20040;-78
2021/06/15 07:51:45;;;;;;;11.38;2.00;;;;;;;33.23;28.75;99475.03;5058802;28;20078;-76
2021/06/15 07:54:11;;;;;;;16.27;2.15;;;;;;;33.17;28.75;99463.09;5058473;28;20093;-76
2021/06/15 07:56:37;;;;;;;10.60;1.75;;;;;;;33.31;28.36;99480.06;5058875;28;20082;-76
2021/06/15 07:59:03;;;;;;;5.15;1.75;;;;;;;33.36;28.53;99482.84;5075436;28;20132;-77
2021/06/15 08:01:29;;;;;;;3.08;1.30;;;;;;;33.45;27.85;99481.25;5091809;28;20044;-77
2021/06/15 08:03:55;;;;;;;5.93;1.60;;;;;;;33.64;28.30;99478.88;5042404;28;20044;-76
2021/06/15 08:06:22;;;;;;;4.95;1.45;;;;;;;33.67;28.06;99466.41;5058989;28;20055;-76
2021/06/15 08:08:48;;;;;;;3.35;1.50;;;;;;;33.81;27.34;99481.41;5058558;28;20079;-76
2021/06/15 08:11:17;;;;;;;8.57;1.70;;;;;;;33.87;27.71;99482.28;5058702;28;20487;-77
2021/06/15 08:13:43;;;;;;;8.77;2.00;;;;;;;33.93;28.03;99472.88;5058441;28;20083;-76
2021/06/15 08:16:09;;;;;;;9.68;2.08;;;;;;;33.66;28.31;99475.81;5041729;28;20040;-75
2021/06/15 08:18:35;;;;;;;5.10;2.10;;;;;;;33.36;28.81;99475.41;5042266;28;20043;-76
2021/06/15 08:21:02;;;;;;;8.07;2.40;;;;;;;33.53;28.13;99469.69;5041221;28;20081;-76
2021/06/15 08:23:28;;;;;;;7.90;1.90;;;;;;;33.90;28.05;99476.19;5075120;28;20425;-76
2021/06/15 08:25:55;;;;;;;4.55;2.05;;;;;;;33.90;28.07;99470.66;5075222;28;20410;-77
2021/06/15 08:28:22;;;;;;;4.35;2.08;;;;;;;33.68;28.08;99468.91;5058152;28;20064;-77
2021/06/15 08:30:48;;;;;;;6.13;2.20;;;;;;;33.32;28.26;99468.69;5092397;28;20503;-77
2021/06/15 08:33:16;;;;;;;7.70;2.10;;;;;;;33.68;27.88;99474.47;5058297;28;20052;-75
2021/06/15 08:35:42;;;;;;;6.40;2.00;;;;;;;34.03;28.14;99468.19;5058212;28;20082;-76
2021/06/15 08:38:08;;;;;;;3.65;2.03;;;;;;;34.16;27.21;99463.25;5058067;28;20387;-77
2021/06/15 08:40:34;;;;;;;4.63;1.90;;;;;;;34.26;27.23;99468.78;5091889;28;20521;-76
2021/06/15 08:43:00;;;;;;;8.70;2.28;;;;;;;34.13;27.64;99461.84;5133485;28;20039;-76
2021/06/15 08:45:26;;;;;;;6.60;1.92;;;;;;;34.39;27.44;99461.91;5083669;28;20093;-76
2021/06/15 08:47:53;;;;;;;6.95;2.30;;;;;;;34.64;27.20;99453.59;5113434;28;20050;-77
2021/06/15 08:50:21;;;;;;;3.70;1.70;;;;;;;34.75;25.85;99460.78;5061855;28;20078;-77
2021/06/15 08:52:47;;;;;;;3.97;2.00;;;;;;;34.53;25.99;99447.22;5031746;28;20044;-78
2021/06/15 08:55:14;;;;;;;6.20;2.00;;;;;;;34.44;26.56;99448.84;5074695;28;20486;-78
2021/06/15 08:57:40;;;;;;;3.50;1.63;;;;;;;34.44;27.09;99448.84;5041143;28;20437;-80
2021/06/15 09:00:08;;;;;;;5.07;1.88;;;;;;;34.80;27.12;99457.19;5044211;28;20044;-80
2021/06/15 09:02:41;;;;;;;6.53;1.83;;;;;;;35.11;25.31;99454.38;5044069;28;20044;-82
2021/06/15 09:05:09;;;;;;;8.35;1.90;;;;;;;35.02;25.79;99449.41;5043270;28;20048;-80
2021/06/15 09:08:14;;;;;;;8.05;1.80;;;;;;;35.10;24.88;99449.97;5043118;28;20090;-75
2021/06/15 09:10:42;;;;;;;8.15;1.60;;;;;;;34.97;24.63;99449.38;4994312;28;20054;-79
2021/06/15 09:13:37;;;;;;;10.95;1.83;;;;;;;34.95;24.50;99440.50;4993794;28;20054;-78
2021/06/15 09:16:23;;;;;;;8.07;1.90;;;;;;;35.00;24.46;99434.13;5032574;28;20054;-78
2021/06/15 09:18:51;;;;;;;6.35;1.60;;;;;;;35.33;23.79;99440.97;5074451;28;20083;-77
2021/06/15 09:21:30;;;;;;;6.20;1.60;;;;;;;35.65;22.83;99439.75;5041075;28;20039;-77
2021/06/15 09:24:07;;;;;;;6.53;1.52;;;;;;;35.51;22.43;99448.72;5057886;28;20044;-76
2021/06/15 09:27:06;;;;;;;4.68;1.60;;;;;;;35.68;21.62;99442.78;5057316;28;20036;-78
2021/06/15 09:29:53;;;;;;;5.20;1.50;;;;;;;35.72;22.40;99435.53;5056976;28;20082;-78
2021/06/15 09:32:30;;;;;;;10.80;1.83;;;;;;;35.95;21.92;99439.59;5093151;28;20180;-76
2021/06/15 09:34:58;;;;;;;4.18;1.30;;;;;;;36.20;21.42;99435.84;5044823;28;20048;-76
2021/06/15 09:37:30;;;;;;;3.30;1.30;;;;;;;36.44;20.90;99441.47;5077510;28;20044;-77
2021/06/15 09:39:57;;;;;;;6.70;1.60;;;;;;;36.05;21.58;99426.78;5077564;28;20044;-74
2021/06/15 09:42:23;;;;;;;5.10;1.63;;;;;;;36.03;22.15;99426.22;5096300;28;20155;-75
2021/06/15 09:44:49;;;;;;;5.40;1.60;;;;;;;36.16;22.13;99418.06;5064174;28;20094;-74
2021/06/15 09:47:15;;;;;;;11.65;1.90;;;;;;;36.69;21.11;99414.56;5047486;28;20512;-75
2021/06/15 09:49:44;;;;;;;35.03;30.23;;;;;;;36.81;21.38;99417.78;5046650;28;20047;-74
2021/06/15 09:52:18;;;;;;;5.18;1.60;;;;;;;37.15;22.18;99416.91;5064255;28;20077;-75
2021/06/15 09:54:51;;;;;;;5.82;1.70;;;;;;;37.57;20.34;99416.09;5064171;28;20043;-75
2021/06/15 09:57:26;;;;;;;8.18;1.90;;;;;;;37.78;20.02;99413.88;5064972;28;20509;-74
2021/06/15 10:00:04;;;;;;;2.65;1.35;;;;;;;37.97;19.74;99404.72;5097279;28;20039;-74
2021/06/15 10:02:31;;;;;;;5.90;1.52;;;;;;;38.12;19.32;99410.06;5115564;28;20067;-73
2021/06/15 10:05:19;;;;;;;7.10;1.70;;;;;;;38.25;19.16;99389.72;5047121;28;20044;-76
2021/06/15 10:07:45;;;;;;;4.57;1.50;;;;;;;38.24;19.12;99404.81;5083453;28;20043;-75
2021/06/15 10:10:11;;;;;;;4.32;1.60;;;;;;;38.64;18.75;99402.50;5063667;28;20062;-74
2021/06/15 10:12:37;;;;;;;3.50;1.60;;;;;;;38.71;18.27;99391.75;5047168;28;20573;-75
2021/06/15 10:15:04;;;;;;;1.75;1.30;;;;;;;38.85;18.89;99394.59;5046898;28;20035;-75
2021/06/15 10:17:30;;;;;;;9.57;1.80;;;;;;;38.45;18.79;99388.59;5080563;28;20043;-75
2021/06/15 10:19:56;;;;;;;4.45;1.38;;;;;;;39.06;18.28;99407.03;5063078;28;20036;-74
2021/06/15 10:22:22;;;;;;;6.43;1.30;;;;;;;39.68;17.77;99409.41;5063705;28;20036;-75
2021/06/15 10:24:51;;;;;;;3.13;1.25;;;;;;;39.99;17.47;99403.13;5047342;28;20519;-75
2021/06/15 10:27:17;;;;;;;6.28;1.55;;;;;;;40.31;17.27;99407.69;5080142;28;20116;-76
2021/06/15 10:29:48;;;;;;;4.53;1.50;;;;;;;40.63;17.31;99400.19;5080321;28;20047;-74
2021/06/15 10:32:20;;;;;;;1.27;1.17;;;;;;;40.34;16.57;99406.22;5065662;28;20490;-74
2021/06/15 10:35:04;;;;;;;2.40;1.40;;;;;;;40.03;17.05;99404.16;5046017;28;20105;-74
2021/06/15 10:37:37;;;;;;;5.32;1.30;;;;;;;40.06;17.02;99397.94;5066284;28;20039;-77
2021/06/15 10:40:26;;;;;;;10.45;1.40;;;;;;;40.80;16.91;99389.06;5115283;28;20051;-73
2021/06/15 10:43:44;;;;;;;7.47;1.23;;;;;;;41.32;17.02;99391.28;5079256;28;20043;-75
2021/06/15 10:46:13;;;;;;;6.32;1.27;;;;;;;41.32;16.66;99388.47;5009357;28;20170;-75
2021/06/15 10:48:43;;;;;;;7.70;1.20;;;;;;;41.69;16.55;99393.53;5079403;27;20067;-74
2021/06/15 10:51:45;;;;;;;3.42;1.02;;;;;;;41.18;16.62;99388.59;5099912;27;20043;-75
2021/06/15 10:54:27;;;;;;;3.03;0.93;;;;;;;40.84;16.58;99378.03;5135124;27;20039;-75
2021/06/15 10:57:31;;;;;;;3.25;1.33;;;;;;;40.66;17.88;99377.97;5075712;28;20044;-77
2021/06/15 11:00:05;;;;;;;4.00;1.27;;;;;;;40.88;17.00;99377.06;5043615;28;20047;-76
2021/06/15 11:02:32;;;;;;;4.50;1.33;;;;;;;41.60;16.40;99375.84;5059541;28;20055;-75
2021/06/15 11:05:19;;;;;;;12.13;1.63;;;;;;;41.99;16.91;99376.88;5058852;28;20048;-76
2021/06/15 11:07:45;;;;;;;;;;;;;;;41.67;16.25;99378.97;5022953;28;20054;-76
2021/06/15 11:10:11;;;;;;;3.10;1.40;;;;;;;42.35;15.66;99367.28;5094316;28;20014;-75
2021/06/15 11:12:47;;;;;;;2.05;1.20;;;;;;;43.01;15.62;99362.13;5026304;28;20051;-77
2021/06/15 11:15:18;;;;;;;3.95;1.10;;;;;;;43.47;15.45;99363.22;5059095;28;20112;-76
2021/06/15 11:17:56;;;;;;;2.63;1.13;;;;;;;43.78;15.35;99371.28;5075193;28;20048;-80
2021/06/15 11:20:26;;;;;;;4.78;1.05;;;;;;;43.42;15.66;99366.22;5059109;28;20131;-76
2021/06/15 11:23:12;;;;;;;2.05;1.23;;;;;;;44.14;14.58;99366.22;5074898;28;20070;-77
2021/06/15 11:25:45;;;;;;;10.27;1.73;;;;;;;44.71;14.78;99362.66;5075665;28;20086;-76
2021/06/15 11:28:37;;;;;;;4.50;1.20;;;;;;;45.01;14.33;99355.63;5056464;28;20055;-76
2021/06/15 11:31:32;;;;;;;2.15;1.00;;;;;;;44.76;14.23;99356.78;5075338;28;20055;-76
2021/06/15 11:33:58;;;;;;;1.27;1.00;;;;;;;44.92;14.63;99351.28;5038351;28;20048;-76
2021/06/15 11:36:47;;;;;;;3.30;1.23;;;;;;;44.68;14.47;99346.44;5093640;28;20493;-76
2021/06/15 11:39:32;;;;;;;1.48;1.35;;;;;;;45.13;14.13;99342.72;5042389;28;20529;-76
2021/06/15 11:42:16;;;;;;;2.15;1.10;;;;;;;43.77;14.69;99330.22;5075504;28;20448;-76
2021/06/15 11:44:59;;;;;;;4.05;1.33;;;;;;;44.80;14.72;99326.72;5075466;28;20145;-77
2021/06/15 11:47:27;;;;;;;10.60;1.50;;;;;;;45.24;14.80;99332.59;5026392;28;20083;-75
2021/06/15 11:50:17;;;;;;;6.38;1.20;;;;;;;44.88;14.61;99334.25;5058863;28;20097;-76
2021/06/15 11:52:54;;;;;;;8.15;1.77;;;;;;;44.72;15.41;99324.81;5064293;27;20444;-75